Terminal Aerodrome Forecast
Issued by NWS

Home | Current Version | Previous Version | Text Only | Print | Product List | Glossary Off
Versions: 1 2 3 4 5 6 7 8 9 10 11 12 13

000
FTUS43 KMPX 140500
TAFRNH
TAF
KRNH 140520Z 1406/1506 18009KT P6SM SCT060
     FM141400 23008KT P6SM SCT200
     FM142000 27010KT P6SM BKN150
     FM150000 30003KT P6SM BKN120=

USA.gov is the U.S. government's official web portal to all federal, state and local government web resources and services.